createdAt,value
2022-10-12T00:02:06.965Z,4.53
2022-10-12T00:04:33.777Z,6.87
2022-10-12T00:07:00.390Z,5.80
2022-10-12T00:09:27.061Z,5.73
2022-10-12T00:11:53.705Z,6.40
2022-10-12T00:14:20.382Z,6.53
2022-10-12T00:16:46.981Z,4.67
2022-10-12T00:19:13.853Z,4.13
2022-10-12T00:21:40.513Z,6.83
2022-10-12T00:24:07.880Z,3.93
2022-10-12T00:26:34.502Z,6.60
2022-10-12T00:29:02.399Z,5.67
2022-10-12T00:31:30.222Z,6.40
2022-10-12T00:34:03.195Z,5.97
2022-10-12T00:36:32.877Z,6.73
2022-10-12T00:38:59.940Z,5.20
2022-10-12T00:41:31.211Z,6.40
2022-10-12T00:43:58.979Z,5.93
2022-10-12T00:46:34.917Z,5.27
2022-10-12T00:49:16.818Z,4.77
2022-10-12T00:51:48.082Z,5.67
2022-10-12T00:54:20.548Z,6.03
2022-10-12T00:56:50.916Z,4.47
2022-10-12T00:59:22.808Z,5.10
2022-10-12T01:01:50.232Z,3.97
2022-10-12T01:04:17.028Z,4.97
2022-10-12T01:06:43.773Z,6.13
2022-10-12T01:09:10.350Z,4.87
2022-10-12T01:11:37.049Z,6.90
2022-10-12T01:14:03.833Z,5.83
2022-10-12T01:16:36.107Z,6.20
2022-10-12T01:19:39.666Z,4.67
2022-10-12T01:22:11.803Z,5.27
2022-10-12T01:25:14.244Z,6.00
2022-10-12T01:27:54.941Z,7.17
2022-10-12T01:30:27.110Z,3.73
2022-10-12T01:33:37.244Z,5.10
2022-10-12T01:36:19.351Z,6.10
2022-10-12T01:39:04.204Z,6.13
2022-10-12T01:41:44.490Z,6.00
2022-10-12T01:44:11.186Z,4.27
2022-10-12T01:46:42.471Z,6.37
2022-10-12T01:49:10.519Z,5.67
2022-10-12T01:51:53.052Z,5.57
2022-10-12T01:55:05.724Z,5.73
2022-10-12T01:58:09.622Z,8.80
2022-10-12T02:00:50.470Z,6.90
2022-10-12T02:03:27.521Z,5.73
2022-10-12T02:06:01.493Z,5.47
2022-10-12T02:08:42.595Z,4.90
2022-10-12T02:11:12.055Z,4.87
2022-10-12T02:13:45.767Z,6.27
2022-10-12T02:16:17.192Z,5.13
2022-10-12T02:18:47.626Z,4.77
2022-10-12T02:21:18.735Z,5.80
2022-10-12T02:23:48.995Z,7.03
2022-10-12T02:26:16.458Z,5.17
2022-10-12T02:28:44.641Z,6.37
2022-10-12T02:31:39.052Z,4.67
2022-10-12T02:34:18.207Z,5.90
2022-10-12T02:36:53.617Z,4.17
2022-10-12T02:39:29.260Z,6.47
2022-10-12T02:42:00.857Z,6.43
2022-10-12T02:44:32.123Z,4.77
2022-10-12T02:47:00.845Z,6.23
2022-10-12T02:49:29.442Z,5.77
2022-10-12T02:51:57.534Z,4.67
2022-10-12T02:54:24.271Z,5.03
2022-10-12T02:56:50.972Z,4.50
2022-10-12T02:59:18.999Z,4.17
2022-10-12T03:01:46.084Z,5.73
2022-10-12T03:04:12.856Z,4.20
2022-10-12T03:06:39.654Z,4.67
2022-10-12T03:09:06.240Z,4.27
2022-10-12T03:11:32.911Z,3.87
2022-10-12T03:13:59.613Z,6.17
2022-10-12T03:16:26.436Z,3.80
2022-10-12T03:18:53.054Z,4.20
2022-10-12T03:21:20.156Z,3.40
2022-10-12T03:23:46.735Z,4.53
2022-10-12T03:26:13.431Z,5.40
2022-10-12T03:28:40.151Z,4.33
2022-10-12T03:31:06.839Z,4.80
2022-10-12T03:33:33.417Z,5.77
2022-10-12T03:36:00.160Z,4.97
2022-10-12T03:38:26.731Z,4.77
2022-10-12T03:40:53.389Z,4.73
2022-10-12T03:43:20.048Z,5.40
2022-10-12T03:45:46.755Z,4.10
2022-10-12T03:48:13.353Z,5.03
2022-10-12T03:50:40.212Z,5.33
2022-10-12T03:53:06.899Z,7.03
2022-10-12T03:55:33.861Z,3.63
2022-10-12T03:58:01.014Z,5.00
2022-10-12T04:00:27.910Z,5.00
2022-10-12T04:02:54.540Z,5.30
2022-10-12T04:05:21.357Z,3.93
2022-10-12T04:07:47.921Z,4.73
2022-10-12T04:10:14.600Z,5.20
2022-10-12T04:12:41.298Z,7.33
2022-10-12T04:15:08.826Z,3.87
2022-10-12T04:17:36.124Z,4.87
2022-10-12T04:20:03.743Z,5.17
2022-10-12T04:22:30.326Z,4.53
2022-10-12T04:24:57.030Z,5.50
2022-10-12T04:27:23.650Z,3.97
2022-10-12T04:29:50.339Z,5.70
2022-10-12T04:32:16.913Z,5.90
2022-10-12T04:34:43.606Z,5.27
2022-10-12T04:37:10.180Z,4.20
2022-10-12T04:39:36.900Z,4.03
2022-10-12T04:42:03.871Z,4.90
2022-10-12T04:44:32.342Z,3.93
2022-10-12T04:47:00.396Z,4.17
2022-10-12T04:49:27.140Z,6.20
2022-10-12T04:51:53.745Z,5.20
2022-10-12T04:54:20.415Z,5.00
2022-10-12T04:56:48.287Z,3.53
2022-10-12T04:59:15.218Z,5.10
2022-10-12T05:01:42.056Z,5.77
2022-10-12T05:04:08.970Z,4.03
2022-10-12T05:06:35.626Z,4.80
2022-10-12T05:09:02.380Z,3.50
2022-10-12T05:11:29.030Z,6.27
2022-10-12T05:13:55.889Z,3.87
2022-10-12T05:16:23.010Z,4.67
2022-10-12T05:18:49.986Z,3.60
2022-10-12T05:21:17.867Z,5.40
2022-10-12T05:23:44.964Z,5.87
2022-10-12T05:26:11.871Z,3.87
2022-10-12T05:28:41.243Z,4.70
2022-10-12T05:31:09.626Z,4.27
2022-10-12T05:33:36.542Z,6.67
2022-10-12T05:36:03.466Z,5.43
2022-10-12T05:38:30.238Z,4.83
2022-10-12T05:41:00.522Z,6.03
2022-10-12T05:43:28.294Z,4.10
2022-10-12T05:45:54.935Z,4.33
2022-10-12T05:48:21.778Z,3.97
2022-10-12T05:50:48.435Z,4.00
2022-10-12T05:53:15.126Z,4.57
2022-10-12T05:56:00.635Z,5.10
2022-10-12T05:58:29.270Z,4.10
2022-10-12T06:00:56.076Z,5.90
2022-10-12T06:03:26.150Z,3.80
2022-10-12T06:05:53.274Z,6.77
2022-10-12T06:08:19.964Z,4.17
2022-10-12T06:10:49.769Z,3.40
2022-10-12T06:13:16.692Z,9.10
2022-10-12T06:15:45.882Z,5.30
2022-10-12T06:18:13.342Z,6.37
2022-10-12T06:20:40.179Z,4.87
2022-10-12T06:23:06.858Z,4.70
2022-10-12T06:25:33.888Z,5.07
2022-10-12T06:28:00.563Z,7.17
2022-10-12T06:30:27.208Z,6.27
2022-10-12T06:32:53.863Z,5.47
2022-10-12T06:35:20.883Z,7.90
2022-10-12T06:37:51.439Z,7.73
2022-10-12T06:40:19.209Z,6.47
2022-10-12T06:42:46.089Z,7.00
2022-10-12T06:45:12.644Z,5.33
2022-10-12T06:47:39.398Z,4.90
2022-10-12T06:50:07.818Z,7.30
2022-10-12T06:52:34.712Z,7.37
2022-10-12T06:55:01.848Z,6.90
2022-10-12T06:57:28.527Z,7.10
2022-10-12T07:03:41.987Z,6.20
2022-10-12T07:06:10.310Z,6.50
2022-10-12T07:08:37.245Z,6.97
2022-10-12T07:11:05.702Z,9.50
2022-10-12T07:13:33.438Z,7.17
2022-10-12T07:16:00.028Z,7.07
2022-10-12T07:18:26.949Z,6.90
2022-10-12T07:20:56.082Z,5.40
2022-10-12T07:23:22.749Z,9.43
2022-10-12T07:25:50.194Z,7.60
2022-10-12T07:28:18.363Z,8.17
2022-10-12T07:30:44.978Z,8.43
2022-10-12T07:33:11.945Z,7.27
2022-10-12T07:35:57.033Z,9.17
2022-10-12T07:38:25.451Z,7.80
2022-10-12T07:40:52.451Z,7.30
2022-10-12T07:43:19.180Z,6.73
2022-10-12T07:45:45.863Z,5.50
2022-10-12T07:48:12.661Z,12.03
2022-10-12T07:50:39.290Z,7.47
2022-10-12T07:53:05.905Z,8.70
2022-10-12T07:55:32.844Z,7.97
2022-10-12T07:58:00.620Z,7.53
2022-10-12T08:00:28.673Z,10.47
2022-10-12T08:02:55.312Z,9.53
2022-10-12T08:05:22.325Z,9.17
2022-10-12T08:07:50.602Z,7.00
2022-10-12T08:10:17.782Z,9.07
2022-10-12T08:12:49.632Z,8.17
2022-10-12T08:15:18.861Z,8.80
2022-10-12T08:17:45.391Z,9.53
2022-10-12T08:20:11.982Z,9.20
2022-10-12T08:22:38.544Z,11.57
2022-10-12T08:25:06.307Z,9.67
2022-10-12T08:27:32.820Z,7.60
2022-10-12T08:29:59.510Z,9.37
2022-10-12T08:32:26.039Z,8.63
2022-10-12T08:34:52.842Z,9.33
2022-10-12T08:37:19.398Z,8.83
2022-10-12T08:39:45.960Z,6.87
2022-10-12T08:42:18.673Z,6.93
2022-10-12T08:45:03.868Z,10.70
2022-10-12T08:47:47.271Z,12.13
2022-10-12T08:50:30.081Z,8.60
2022-10-12T08:53:32.883Z,9.00
2022-10-12T08:55:59.585Z,9.07
2022-10-12T08:58:32.109Z,8.53
2022-10-12T09:01:23.983Z,11.90
2022-10-12T09:04:15.286Z,7.67
2022-10-12T09:06:49.992Z,6.90
2022-10-12T09:09:56.647Z,8.23
2022-10-12T09:12:37.119Z,8.73
2022-10-12T09:15:12.314Z,7.83
2022-10-12T09:17:44.092Z,7.37
2022-10-12T09:20:19.751Z,7.00
2022-10-12T09:22:50.550Z,6.57
2022-10-12T09:25:23.470Z,7.77
2022-10-12T09:27:51.164Z,6.40
2022-10-12T09:30:19.472Z,8.10
2022-10-12T09:33:04.420Z,6.82
2022-10-12T09:35:31.062Z,7.60
2022-10-12T09:37:57.615Z,9.50
2022-10-12T09:40:27.561Z,9.00
2022-10-12T09:42:55.775Z,9.15
2022-10-12T09:45:23.442Z,7.45
2022-10-12T09:48:12.008Z,8.68
2022-10-12T09:50:53.167Z,8.40
2022-10-12T09:53:23.868Z,5.63
2022-10-12T09:55:56.074Z,7.95
2022-10-12T09:58:22.938Z,8.73
2022-10-12T10:01:12.065Z,6.78
2022-10-12T10:03:38.627Z,8.35
2022-10-12T10:06:05.471Z,8.70
2022-10-12T10:08:44.014Z,9.75
2022-10-12T10:11:37.059Z,9.65
2022-10-12T10:14:03.727Z,6.47
2022-10-12T10:16:30.586Z,10.00
2022-10-12T10:19:00.489Z,8.07
2022-10-12T10:21:31.944Z,9.05
2022-10-12T10:24:07.285Z,6.25
2022-10-12T10:27:07.479Z,6.03
2022-10-12T10:29:36.433Z,12.68
2022-10-12T10:35:12.596Z,8.15
2022-10-12T10:37:45.392Z,9.43
2022-10-12T10:40:20.859Z,6.05
2022-10-12T10:42:54.421Z,6.40
2022-10-12T10:45:30.790Z,7.57
2022-10-12T10:47:58.464Z,6.05
2022-10-12T10:50:41.273Z,7.53
2022-10-12T10:53:19.288Z,7.05
2022-10-12T10:55:49.892Z,6.07
2022-10-12T10:58:41.648Z,8.63
2022-10-12T11:01:33.309Z,7.93
2022-10-12T11:04:14.397Z,6.88
2022-10-12T11:06:53.702Z,7.10
2022-10-12T11:09:23.302Z,6.57
2022-10-12T11:11:56.956Z,7.68
2022-10-12T11:14:30.410Z,7.25
2022-10-12T11:17:05.370Z,9.20
2022-10-12T11:19:58.499Z,7.40
2022-10-12T11:22:36.213Z,5.97
2022-10-12T11:25:48.892Z,6.22
2022-10-12T11:28:16.576Z,10.00
2022-10-12T11:30:49.717Z,9.20
2022-10-12T11:33:26.863Z,8.00
2022-10-12T11:35:57.090Z,7.72
2022-10-12T11:38:35.494Z,6.22
2022-10-12T11:41:34.265Z,8.82
2022-10-12T11:44:30.156Z,6.97
2022-10-12T11:47:22.924Z,7.63
2022-10-12T11:50:04.206Z,8.30
2022-10-12T11:52:46.992Z,7.78
2022-10-12T11:55:25.904Z,9.63
2022-10-12T11:57:54.503Z,7.28
2022-10-12T12:00:31.599Z,6.82
2022-10-12T12:03:21.491Z,6.32
2022-10-12T12:05:48.206Z,7.40
2022-10-12T12:08:37.003Z,8.05
2022-10-12T12:11:17.706Z,8.35
2022-10-12T12:13:44.325Z,8.38
2022-10-12T12:16:13.762Z,8.88
2022-10-12T12:19:38.875Z,8.32
2022-10-12T12:22:20.761Z,9.18
2022-10-12T12:25:02.178Z,6.50
2022-10-12T12:27:36.658Z,7.32
2022-10-12T12:30:23.951Z,6.40
2022-10-12T12:33:07.428Z,6.10
2022-10-12T12:35:39.795Z,9.70
2022-10-12T12:38:14.266Z,6.22
2022-10-12T12:40:42.144Z,7.07
2022-10-12T12:43:30.587Z,8.82
2022-10-12T12:46:02.954Z,4.90
2022-10-12T12:48:38.636Z,7.50
2022-10-12T12:51:07.724Z,6.22
2022-10-12T12:53:37.768Z,5.57
2022-10-12T12:56:19.464Z,7.95
2022-10-12T12:58:48.779Z,6.75
2022-10-12T13:01:24.590Z,7.43
2022-10-12T13:04:17.246Z,5.60
2022-10-12T13:07:06.273Z,5.15
2022-10-12T13:09:58.612Z,8.32
2022-10-12T13:12:31.732Z,5.95
2022-10-12T13:15:19.901Z,4.95
2022-10-12T13:18:09.052Z,5.47
2022-10-12T13:20:48.104Z,6.35
2022-10-12T13:23:24.274Z,4.45
2022-10-12T13:25:57.213Z,5.50
2022-10-12T13:28:30.913Z,4.40
2022-10-12T13:31:04.755Z,7.95
2022-10-12T13:33:37.368Z,6.20
2022-10-12T13:36:08.600Z,6.30
2022-10-12T13:38:36.712Z,5.95
2022-10-12T13:41:19.391Z,6.40
2022-10-12T13:43:54.310Z,6.88
2022-10-12T13:46:43.072Z,6.38
2022-10-12T13:49:17.121Z,9.10
2022-10-12T13:51:46.851Z,7.20
2022-10-12T13:54:16.111Z,6.78
2022-10-12T13:56:43.496Z,11.68
2022-10-12T13:59:19.659Z,6.63
2022-10-12T14:01:51.430Z,5.43
2022-10-12T14:04:17.993Z,6.13
2022-10-12T14:06:48.247Z,8.18
2022-10-12T14:09:24.362Z,6.25
2022-10-12T14:11:53.178Z,6.70
2022-10-12T14:14:33.051Z,6.13
2022-10-12T14:17:00.243Z,5.03
2022-10-12T14:19:40.261Z,7.43
2022-10-12T14:22:07.893Z,6.38
2022-10-12T14:24:36.845Z,5.43
2022-10-12T14:27:06.393Z,5.93
2022-10-12T14:29:39.571Z,4.32
2022-10-12T14:32:28.127Z,7.47
2022-10-12T14:35:13.388Z,5.40
2022-10-12T14:37:40.183Z,8.38
2022-10-12T14:40:35.756Z,6.38
2022-10-12T14:43:20.217Z,6.15
2022-10-12T14:45:47.478Z,9.38
2022-10-12T14:48:18.628Z,8.32
2022-10-12T14:50:46.326Z,5.43
2022-10-12T14:53:14.170Z,6.88
2022-10-12T14:55:42.057Z,7.40
2022-10-12T14:58:16.729Z,8.57
2022-10-12T15:00:43.767Z,6.47
2022-10-12T15:03:10.384Z,6.15
2022-10-12T15:05:37.520Z,8.23
2022-10-12T15:08:04.340Z,5.38
2022-10-12T15:10:30.962Z,5.97
2022-10-12T15:12:57.518Z,6.38
2022-10-12T15:15:38.860Z,7.07
2022-10-12T15:18:06.280Z,8.02
2022-10-12T15:20:33.587Z,6.95
2022-10-12T15:23:00.330Z,8.02
2022-10-12T15:25:47.213Z,9.07
2022-10-12T15:28:13.902Z,12.18
2022-10-12T15:30:58.072Z,6.63
2022-10-12T15:33:27.324Z,9.48
2022-10-12T15:35:53.848Z,7.80
2022-10-12T15:38:20.684Z,7.18
2022-10-12T15:40:47.230Z,7.47
2022-10-12T15:43:14.200Z,11.02
2022-10-12T15:45:41.179Z,8.23
2022-10-12T15:48:09.130Z,5.95
2022-10-12T15:50:42.271Z,6.20
2022-10-12T15:53:14.650Z,7.38
2022-10-12T15:55:41.527Z,6.05
2022-10-12T15:58:08.043Z,6.65
2022-10-12T16:00:34.903Z,8.93
2022-10-12T16:03:01.837Z,7.05
2022-10-12T16:05:29.904Z,7.55
2022-10-12T16:07:56.999Z,5.78
2022-10-12T16:10:26.787Z,5.65
2022-10-12T16:12:54.734Z,5.55
2022-10-12T16:15:25.362Z,5.93
2022-10-12T16:17:52.020Z,6.35
2022-10-12T16:20:19.021Z,6.55
2022-10-12T16:22:46.852Z,5.15
2022-10-12T16:25:15.301Z,8.05
2022-10-12T16:27:41.920Z,6.38
2022-10-12T16:30:10.131Z,6.53
2022-10-12T16:32:36.711Z,5.95
2022-10-12T16:35:04.550Z,10.13
2022-10-12T16:37:31.705Z,7.25
2022-10-12T16:39:58.308Z,6.35
2022-10-12T16:42:24.941Z,4.78
2022-10-12T16:44:51.707Z,6.82
2022-10-12T16:47:18.483Z,9.93
2022-10-12T16:49:45.710Z,5.03
2022-10-12T16:52:12.605Z,9.20
2022-10-12T16:54:39.781Z,8.27
2022-10-12T16:57:06.570Z,7.00
2022-10-12T16:59:33.123Z,5.68
2022-10-12T17:01:59.681Z,5.63
2022-10-12T17:04:26.247Z,6.95
2022-10-12T17:06:53.584Z,7.55
2022-10-12T17:09:20.630Z,9.20
2022-10-12T17:11:47.261Z,6.38
2022-10-12T17:14:15.902Z,5.88
2022-10-12T17:16:43.104Z,6.65
2022-10-12T17:19:09.622Z,8.77
2022-10-12T17:21:36.396Z,9.68
2022-10-12T17:24:02.931Z,6.82
2022-10-12T17:26:29.755Z,9.75
2022-10-12T17:28:56.694Z,8.05
2022-10-12T17:31:23.663Z,7.57
2022-10-12T17:33:50.180Z,8.75
2022-10-12T17:36:17.559Z,7.40
2022-10-12T17:38:44.112Z,8.07
2022-10-12T17:41:10.668Z,9.82
2022-10-12T17:43:37.531Z,6.72
2022-10-12T17:46:05.730Z,9.13
2022-10-12T17:48:32.559Z,8.60
2022-10-12T17:51:03.485Z,9.52
2022-10-12T17:53:30.137Z,7.90
2022-10-12T17:56:00.558Z,8.38
2022-10-12T17:58:27.235Z,6.60
2022-10-12T18:00:54.332Z,8.57
2022-10-12T18:03:25.590Z,8.73
2022-10-12T18:05:52.840Z,8.32
2022-10-12T18:08:19.347Z,8.15
2022-10-12T18:10:45.968Z,11.43
2022-10-12T18:13:12.778Z,9.75
2022-10-12T18:15:43.496Z,9.85
2022-10-12T18:18:15.021Z,10.70
2022-10-12T18:20:42.327Z,9.27
2022-10-12T18:23:09.327Z,6.72
2022-10-12T18:25:40.075Z,9.80
2022-10-12T18:28:08.409Z,6.43
2022-10-12T18:30:35.294Z,5.50
2022-10-12T18:33:02.064Z,9.60
2022-10-12T18:35:34.209Z,8.57
2022-10-12T18:38:00.739Z,8.15
2022-10-12T18:40:27.480Z,9.65
2022-10-12T18:42:54.384Z,7.97
2022-10-12T18:45:20.982Z,8.05
2022-10-12T18:47:47.654Z,8.20
2022-10-12T18:50:14.452Z,8.27
2022-10-12T18:52:41.079Z,7.45
2022-10-12T18:55:08.045Z,6.55
2022-10-12T18:57:40.010Z,7.13
2022-10-12T19:00:09.549Z,9.00
2022-10-12T19:02:39.280Z,9.93
2022-10-12T19:05:06.088Z,9.48
2022-10-12T19:07:34.131Z,10.75
2022-10-12T19:10:01.836Z,7.75
2022-10-12T19:12:28.355Z,8.82
2022-10-12T19:14:54.975Z,8.02
2022-10-12T19:17:21.545Z,8.85
2022-10-12T19:19:48.191Z,11.95
2022-10-12T19:22:15.056Z,10.02
2022-10-12T19:24:42.027Z,14.27
2022-10-12T19:27:10.894Z,15.32
2022-10-12T19:29:43.513Z,11.60
2022-10-12T19:32:12.777Z,10.15
2022-10-12T19:34:39.269Z,9.88
2022-10-12T19:37:05.839Z,9.07
2022-10-12T19:39:32.401Z,10.52
2022-10-12T19:41:58.961Z,9.93
2022-10-12T19:44:25.556Z,11.68
2022-10-12T19:46:52.311Z,10.43
2022-10-12T19:49:19.511Z,11.50
2022-10-12T19:51:46.559Z,8.63
2022-10-12T19:54:14.638Z,11.63
2022-10-12T19:56:41.609Z,10.25
2022-10-12T19:59:08.124Z,13.15
2022-10-12T20:01:36.940Z,13.32
2022-10-12T20:04:05.786Z,9.20
2022-10-12T20:06:32.654Z,12.03
2022-10-12T20:09:00.498Z,12.83
2022-10-12T20:11:27.693Z,9.10
2022-10-12T20:13:55.627Z,12.43
2022-10-12T20:16:23.024Z,9.80
2022-10-12T20:18:55.866Z,9.32
2022-10-12T20:21:24.773Z,9.13
2022-10-12T20:23:54.363Z,9.80
2022-10-12T20:26:27.519Z,9.97
2022-10-12T20:28:54.963Z,10.90
2022-10-12T20:31:22.609Z,10.10
2022-10-12T20:33:52.292Z,8.15
2022-10-12T20:36:25.321Z,10.80
2022-10-12T20:38:52.688Z,9.05
2022-10-12T20:41:19.232Z,9.93
2022-10-12T20:43:46.245Z,9.07
2022-10-12T20:46:15.361Z,9.30
2022-10-12T20:48:43.233Z,9.00
2022-10-12T20:51:19.667Z,12.73
2022-10-12T20:53:46.682Z,12.23
2022-10-12T20:56:13.533Z,10.90
2022-10-12T20:58:40.586Z,11.87
2022-10-12T21:01:12.745Z,16.90
2022-10-12T21:03:40.210Z,10.33
2022-10-12T21:06:09.248Z,10.90
2022-10-12T21:08:37.391Z,10.73
2022-10-12T21:11:05.319Z,12.37
2022-10-12T21:13:34.466Z,12.07
2022-10-12T21:16:01.401Z,9.43
2022-10-12T21:18:28.366Z,10.70
2022-10-12T21:21:00.254Z,14.83
2022-10-12T21:23:27.928Z,12.57
2022-10-12T21:25:55.067Z,13.70
2022-10-12T21:28:22.772Z,12.17
2022-10-12T21:30:50.126Z,11.20
2022-10-12T21:33:20.985Z,10.33
2022-10-12T21:35:47.653Z,10.20
2022-10-12T21:38:14.170Z,11.27
2022-10-12T21:40:40.927Z,8.83
2022-10-12T21:43:07.528Z,9.40
2022-10-12T21:45:34.184Z,10.27
2022-10-12T21:48:00.949Z,9.10
2022-10-12T21:50:28.488Z,12.13
2022-10-12T21:53:00.054Z,10.47
2022-10-12T21:55:27.106Z,10.57
2022-10-12T21:57:53.731Z,8.97
2022-10-12T22:00:20.670Z,11.77
2022-10-12T22:02:48.004Z,11.00
2022-10-12T22:05:14.950Z,10.50
2022-10-12T22:07:42.737Z,10.77
2022-10-12T22:10:11.186Z,11.57
2022-10-12T22:12:38.809Z,11.17
2022-10-12T22:15:06.255Z,10.70
2022-10-12T22:17:34.423Z,10.67
2022-10-12T22:20:02.509Z,9.27
2022-10-12T22:22:29.123Z,11.40
2022-10-12T22:24:55.765Z,10.47
2022-10-12T22:27:25.990Z,11.23
2022-10-12T22:29:52.585Z,13.03
2022-10-12T22:32:19.457Z,11.63
2022-10-12T22:34:46.290Z,14.87
2022-10-12T22:37:12.798Z,11.00
2022-10-12T22:39:39.384Z,15.50
2022-10-12T22:42:06.541Z,19.23
2022-10-12T22:44:33.117Z,14.73
2022-10-12T22:46:59.619Z,15.57
2022-10-12T22:49:26.267Z,15.30
2022-10-12T22:51:52.770Z,15.73
2022-10-12T22:54:19.395Z,11.53
2022-10-12T22:56:45.999Z,12.67
2022-10-12T22:59:15.007Z,12.97
2022-10-12T23:01:41.621Z,12.50
2022-10-12T23:04:08.237Z,11.37
2022-10-12T23:06:34.763Z,11.67
2022-10-12T23:09:02.409Z,10.70
2022-10-12T23:11:30.203Z,10.90
2022-10-12T23:13:57.718Z,10.23
2022-10-12T23:16:31.645Z,10.30
2022-10-12T23:19:00.515Z,11.53
2022-10-12T23:21:29.060Z,9.20
2022-10-12T23:23:55.990Z,10.33
2022-10-12T23:26:25.034Z,12.87
2022-10-12T23:28:51.834Z,10.70
2022-10-12T23:31:21.118Z,12.87
2022-10-12T23:33:57.990Z,10.93
2022-10-12T23:36:25.527Z,10.60
2022-10-12T23:38:52.235Z,9.67
2022-10-12T23:41:18.991Z,9.47
2022-10-12T23:43:45.791Z,9.17
2022-10-12T23:46:13.359Z,11.40
2022-10-12T23:48:40.264Z,11.33
2022-10-12T23:51:10.137Z,9.17
2022-10-12T23:53:37.781Z,11.37
2022-10-12T23:56:05.532Z,14.00
2022-10-12T23:58:32.294Z,10.60
